GOOYGMMX [AF6969]

Details From GOOY - Dakar Leopold Sedar Senghor Intl
To GMMX - MENARA
Flight Number AF6969
Tags generated
Created
Modified
Stats Distance 1,156 nm / 2,141 km
Max Altitude 35,000 ft / 10,668 m
Waypoints 12
Social Downloads 1
Likes 0
Share VATSIM

Download

Looking for another format? Having issues loading an existing format? Contact us
Advertisement - Login to hide

Notes

Basic altitude profile: - Ascent Rate: 2500ft/min - Ascent Speed: 250kts - Cruise Altitude: 35000ft - Cruise Speed: 420kts - Descent Rate: 1500ft/min - Descent Speed: 250kts Options: - Use NATs: yes - Use PACOTS: yes - Use low airways: yes - Use high airways: yes

Route

GOOY YF R975F SLO UR975 ADM GMMX

ID Type Via Altitude Latitude Longitude Leg Dist Tot Dist Heading (true) Name
O GOOY APT - 0 ft / 0 m 14.73971˚ -17.49023˚ - 0 nm - Dakar Leopold Sedar Senghor Intl
YF VOR - 300 ft / 91 m 14.74483˚ -17.47478˚ 0 nm 0 nm 71° / 71° DAKAR VOR-DME
SLO NDB R975F (AWY-LO) 23,500 ft / 7,163 m 16.04908˚ -16.45714˚ 98 nm 98 nm 37° / 37° SAINT LOUIS NDB
ULNOT FIX UR975 (AWY-HI) 35,000 ft / 10,668 m 17.10722˚ -15.66917˚ 78 nm 177 nm 35° / 36° -
IDINI FIX UR975 (AWY-HI) 35,000 ft / 10,668 m 17.64306˚ -15.26583˚ 39 nm 216 nm 36° / 36° -
AR NDB UR975 (AWY-HI) 35,000 ft / 10,668 m 20.50231˚ -13.05908˚ 212 nm 429 nm 36° / 36° ATAR NDB
ZRT VOR UR975 (AWY-HI) 35,000 ft / 10,668 m 22.75853˚ -12.46158˚ 139 nm 568 nm 14° / 14° ZOUERAT VOR
BIMOG FIX UR975 (AWY-HI) 35,000 ft / 10,668 m 25.21667˚ -11.55000˚ 155 nm 724 nm 19° / 19° -
ECHED FIX UR975 (AWY-HI) 35,000 ft / 10,668 m 27.66667˚ -10.51667˚ 157 nm 881 nm 20° / 21° -
MOROX FIX UR975 (AWY-HI) 35,000 ft / 10,668 m 29.00000˚ -10.00889˚ 84 nm 966 nm 18° / 19° -
ADM VOR UR975 (AWY-HI) 23,500 ft / 7,163 m 30.32194˚ -9.38333˚ 85 nm 1052 nm 22° / 23° AGADIR VOR-DME
O GMMX APT - 0 ft / 0 m 31.60692˚ -8.03627˚ 103 nm 1155 nm 42° / 42° MENARA

Altitude Profile

Advertisement - Login to hide

Weather


0- 5 10 15 20 25 30 35+ Temperature / ° C

Clouds and Precipitation
Forecast for 2017-12-16 12:00 UTC. Updated 16 minutes ago

Ground ~20,000 ft ~40,000 ft Winds

GOOY

Details ICAO GOOY (DKR)
Name Dakar Leopold Sedar Senghor Intl
Region Senegal
Timezone Africa/Dakar (UTC+0.0)
Stats Elevation 85 ft / 26 m (AMSL)
Location 14.739711° -17.490226°
Runways 2
Magnetic Variation 7.347° W

METAR

GOOY 160900Z 04008KT 4000 DU NSC 21/10 Q1016

Decode

TAF

TAF GOOY 160530Z 1606/1712 05012KT 8000 NSC= TAF GBYD 160530Z 1606/1712 03008KT CAVOK

Decode

Departure Runways

ID Width Length Bearing (true) Bearing (mag) Surface Threshold Offset Overrun Length
03 98 ft / 30 m 4,921 ft / 1,500 m 22.31° 29.66° Asphalt 0 ft / 0 m 98 ft / 30 m
18 148 ft / 45 m 11,511 ft / 3,509 m 172.57° 179.92° Asphalt 525 ft / 160 m 197 ft / 60 m
21 98 ft / 30 m 4,921 ft / 1,500 m 202.31° 209.66° Asphalt 0 ft / 0 m 1,590 ft / 485 m
36 148 ft / 45 m 11,511 ft / 3,509 m 352.57° 359.92° Asphalt 0 ft / 0 m 197 ft / 60 m

GMMX

Details ICAO GMMX (RAK)
Name MENARA
Region Morocco
Timezone Africa/Casablanca (UTC+0.0)
Stats Elevation 1,545 ft / 471 m (AMSL)
Location 31.606920° -8.036265°
Runways 1
Magnetic Variation 1.999° W

METAR

GMMX 160930Z 00000KT 9999 BKN026 SCT090 13/07 Q1020 NOSIG

Decode

TAF

TAF GMMX 160500Z 1606/1712 26004KT 9999 SCT023

Decode

Destination Runways

ID Width Length Bearing (true) Bearing (mag) Surface Threshold Offset Overrun Length
10 148 ft / 45 m 10,169 ft / 3,100 m 95.99° 97.99° Asphalt 918 ft / 280 m 0 ft / 0 m
28 148 ft / 45 m 10,169 ft / 3,100 m 276.00° 278.00° Asphalt 0 ft / 0 m 0 ft / 0 m

Approach Navaids

Runway Type Ident Frequency Range Bearing (true) Bearing (mag) Slope Elevation
10 Localiser MAR 109.70 MHz 18 nm / 33 km 96.03° 98.02° - 1,545 ft / 471 m (AMSL)
10 Glidescope MAR 109.70 MHz 10 nm / 19 km 96.00° 97.99° 3.00° 1,558 ft / 475 m (AMSL)

Popular Alternatives